Time;durP1;ratioP1;P1;durP2;ratioP2;P2;SDS_P1;SDS_P2;PMS_P1;PMS_P2;Temp;Humidity;BMP_temperature;BMP_pressure;BME280_temperature;BME280_humidity;BME280_pressure;Samples;Min_cycle;Max_cycle;Signal;HPM_P1;HPM_P2
2023/01/05 00:01:11;;;;;;;15.45;3.05;;;;;;;7.16;100.00;100273.19;5081683;28;20185;-46
2023/01/05 00:03:37;;;;;;;16.98;2.75;;;;;;;7.27;100.00;100263.97;5080791;28;20248;-46
2023/01/05 00:06:11;;;;;;;19.05;2.65;;;;;;;7.25;100.00;100261.34;5076035;28;20186;-46
2023/01/05 00:08:37;;;;;;;14.77;2.60;;;;;;;7.27;100.00;100250.66;5080617;28;20186;-46
2023/01/05 00:24:44;;;;;;;16.88;3.13;;;;;;;7.25;100.00;100247.19;5076776;28;20749;-47
2023/01/05 00:27:10;;;;;;;16.00;3.30;;;;;;;7.19;100.00;100250.91;5082709;28;20184;-48
2023/01/05 00:29:35;;;;;;;19.17;3.40;;;;;;;7.14;100.00;100267.03;5075667;28;20265;-46
2023/01/05 00:32:01;;;;;;;19.13;3.03;;;;;;;7.09;100.00;100252.16;5075764;28;20234;-47
2023/01/05 00:34:27;;;;;;;19.80;3.70;;;;;;;7.10;100.00;100267.19;5077173;28;20198;-46
2023/01/05 00:36:52;;;;;;;19.92;3.10;;;;;;;7.16;100.00;100275.84;5077992;28;20171;-47
2023/01/05 00:39:17;;;;;;;14.90;2.95;;;;;;;7.15;100.00;100262.59;5075535;28;20317;-47
2023/01/05 00:41:43;;;;;;;13.60;3.10;;;;;;;7.11;100.00;100267.16;5078240;28;20174;-46
2023/01/05 00:44:08;;;;;;;16.63;3.53;;;;;;;7.09;100.00;100269.00;5086029;28;20272;-47
2023/01/05 00:46:34;;;;;;;18.85;2.63;;;;;;;7.01;100.00;100279.03;5085141;28;20174;-47
2023/01/05 00:48:59;;;;;;;15.20;3.70;;;;;;;7.15;100.00;100273.25;5078453;28;20183;-47
2023/01/05 00:51:25;;;;;;;15.05;2.78;;;;;;;7.04;100.00;100273.63;5076404;28;20166;-48
2023/01/05 00:53:51;;;;;;;17.13;2.60;;;;;;;7.19;100.00;100270.44;5057666;28;20202;-48
2023/01/05 00:56:16;;;;;;;19.33;3.05;;;;;;;7.12;100.00;100271.56;5080783;28;20613;-46
2023/01/05 00:58:42;;;;;;;16.52;2.78;;;;;;;7.14;100.00;100287.50;5074839;28;20174;-47
2023/01/05 01:01:09;;;;;;;14.90;2.58;;;;;;;7.14;100.00;100290.16;5076655;28;20575;-46
2023/01/05 01:03:34;;;;;;;19.38;3.33;;;;;;;7.08;100.00;100293.00;5078448;28;20267;-48
2023/01/05 01:06:00;;;;;;;15.10;2.88;;;;;;;7.12;100.00;100294.66;5074928;28;20206;-48
2023/01/05 01:08:25;;;;;;;18.80;2.92;;;;;;;7.14;100.00;100290.16;5078311;28;20182;-49
2023/01/05 01:10:51;;;;;;;15.93;2.80;;;;;;;7.27;100.00;100299.50;5075721;28;20198;-47
2023/01/05 01:13:17;;;;;;;11.80;2.05;;;;;;;7.19;100.00;100288.19;5082039;28;20198;-53
2023/01/05 01:15:43;;;;;;;17.60;3.33;;;;;;;7.11;100.00;100304.44;5077623;28;20172;-47
2023/01/05 01:18:09;;;;;;;13.50;2.85;;;;;;;7.14;100.00;100315.00;5075014;28;20181;-48
2023/01/05 01:20:36;;;;;;;17.08;3.03;;;;;;;7.19;100.00;100293.53;5079653;28;20205;-47
2023/01/05 01:23:03;;;;;;;17.30;3.20;;;;;;;7.18;100.00;100297.13;5079665;28;20186;-47
2023/01/05 01:25:29;;;;;;;17.27;2.90;;;;;;;7.16;100.00;100296.31;5083311;28;20315;-46
2023/01/05 01:27:54;;;;;;;11.60;2.30;;;;;;;7.24;100.00;100315.59;5078302;28;20264;-49
2023/01/05 01:30:20;;;;;;;21.30;2.83;;;;;;;7.19;100.00;100301.53;5082449;28;20170;-48
2023/01/05 01:32:45;;;;;;;16.83;2.95;;;;;;;7.15;100.00;100305.19;5081642;28;20173;-46
2023/01/05 01:35:11;;;;;;;12.70;3.10;;;;;;;7.20;100.00;100311.28;5061336;28;20182;-48
2023/01/05 01:37:36;;;;;;;15.73;2.90;;;;;;;7.19;100.00;100313.06;5078331;28;20297;-48
2023/01/05 01:40:03;;;;;;;17.88;2.83;;;;;;;7.09;100.00;100321.41;5081471;28;20371;-47
2023/01/05 01:42:30;;;;;;;14.40;2.95;;;;;;;7.16;100.00;100322.94;5077447;28;20649;-47
2023/01/05 01:45:10;;;;;;;18.90;3.13;;;;;;;7.17;100.00;100319.34;5080095;28;20223;-48
2023/01/05 01:47:44;;;;;;;15.27;2.90;;;;;;;7.08;100.00;100331.16;5086716;28;20185;-47
2023/01/05 01:50:26;;;;;;;21.10;3.78;;;;;;;7.07;100.00;100310.81;5083003;28;20187;-46
2023/01/05 01:52:57;;;;;;;17.77;2.72;;;;;;;7.12;100.00;100318.63;5075170;28;20188;-45
2023/01/05 01:55:24;;;;;;;16.88;3.35;;;;;;;7.06;100.00;100322.34;5078143;28;20645;-46
2023/01/05 01:57:50;;;;;;;18.23;3.25;;;;;;;7.00;100.00;100319.91;5078502;28;20178;-45
2023/01/05 02:00:17;;;;;;;18.95;2.78;;;;;;;6.99;100.00;100324.34;5080228;28;20201;-45
2023/01/05 02:02:45;;;;;;;16.40;2.80;;;;;;;7.02;100.00;100342.03;5078589;28;20166;-46
2023/01/05 02:05:15;;;;;;;17.45;2.70;;;;;;;7.00;100.00;100343.88;5075054;28;20229;-46
2023/01/05 02:07:46;;;;;;;14.93;2.90;;;;;;;7.03;100.00;100335.78;5074375;28;20636;-45
2023/01/05 02:10:14;;;;;;;24.50;3.53;;;;;;;7.13;100.00;100339.03;5079952;28;20643;-46
2023/01/05 02:13:06;;;;;;;19.15;2.83;;;;;;;7.05;100.00;100338.41;5074222;28;20175;-46
2023/01/05 02:15:49;;;;;;;14.00;2.97;;;;;;;6.96;100.00;100320.94;5066782;28;20563;-47
2023/01/05 02:18:36;;;;;;;17.77;2.75;;;;;;;7.04;100.00;100320.66;5079309;28;20602;-46
2023/01/05 02:21:30;;;;;;;13.23;2.22;;;;;;;7.08;100.00;100319.66;5073714;28;20568;-46
2023/01/05 02:23:59;;;;;;;17.40;3.10;;;;;;;7.06;100.00;100317.03;5068070;28;20759;-45
2023/01/05 02:27:01;;;;;;;16.88;2.70;;;;;;;7.03;100.00;100322.47;5086816;28;20186;-47
2023/01/05 02:29:28;;;;;;;18.13;3.03;;;;;;;7.04;100.00;100310.00;5077434;28;20181;-45
2023/01/05 02:32:20;;;;;;;17.38;2.38;;;;;;;6.92;100.00;100325.47;5078675;28;20259;-46
2023/01/05 02:34:51;;;;;;;20.20;3.08;;;;;;;6.88;100.00;100322.94;5076548;28;20617;-45
2023/01/05 02:37:43;;;;;;;17.48;2.67;;;;;;;6.88;100.00;100326.47;5078188;28;20695;-46
2023/01/05 02:40:19;;;;;;;20.30;3.17;;;;;;;6.91;100.00;100333.50;5085155;28;20267;-47
2023/01/05 02:42:48;;;;;;;16.70;2.58;;;;;;;6.87;100.00;100321.22;5086411;28;20178;-47
2023/01/05 02:45:16;;;;;;;13.13;2.40;;;;;;;6.89;100.00;100327.38;5087238;28;20302;-45
2023/01/05 02:47:44;;;;;;;16.33;2.22;;;;;;;6.91;100.00;100331.72;5078834;28;20182;-48
2023/01/05 02:50:13;;;;;;;15.68;2.78;;;;;;;6.93;100.00;100334.31;5082241;28;20174;-47
2023/01/05 02:52:43;;;;;;;17.88;2.88;;;;;;;6.89;100.00;100322.03;5081214;28;20193;-47
2023/01/05 02:55:14;;;;;;;13.45;2.67;;;;;;;7.00;100.00;100330.56;5085550;28;20187;-46
2023/01/05 02:57:48;;;;;;;11.85;3.05;;;;;;;6.97;100.00;100320.00;5081116;28;20338;-47
2023/01/05 03:00:26;;;;;;;14.57;2.55;;;;;;;7.02;100.00;100323.41;5078282;28;20256;-45
2023/01/05 03:02:56;;;;;;;19.52;3.15;;;;;;;6.95;100.00;100336.03;5084167;28;20656;-43
2023/01/05 03:05:30;;;;;;;14.77;2.70;;;;;;;6.99;100.00;100350.13;5093227;28;20157;-42
2023/01/05 03:08:09;;;;;;;13.52;2.47;;;;;;;7.00;100.00;100347.41;5091361;28;20186;-44
2023/01/05 03:13:41;;;;;;;17.90;2.58;;;;;;;7.06;100.00;100340.13;5091125;28;20432;-43
2023/01/05 03:16:13;;;;;;;15.23;2.75;;;;;;;7.00;100.00;100347.41;5091332;28;20211;-43
2023/01/05 03:21:26;;;;;;;13.80;2.60;;;;;;;7.06;100.00;100354.31;5091170;28;20166;-43
2023/01/05 03:35:32;;;;;;;10.50;2.70;;;;;;;7.00;100.00;100366.06;5091109;28;20263;-46
2023/01/05 03:38:30;;;;;;;19.45;2.85;;;;;;;6.98;100.00;100351.91;5092181;28;20534;-43
2023/01/05 03:41:01;;;;;;;13.95;2.88;;;;;;;6.96;100.00;100361.75;5091660;28;20217;-44
2023/01/05 03:43:27;;;;;;;14.50;2.53;;;;;;;6.98;100.00;100377.69;5090902;28;20205;-45
2023/01/05 03:45:55;;;;;;;13.98;2.47;;;;;;;7.03;100.00;100377.53;5091969;28;20167;-48
2023/01/05 03:48:26;;;;;;;19.25;2.65;;;;;;;6.98;100.00;100381.22;5090910;28;20258;-44
2023/01/05 03:50:51;;;;;;;13.60;2.47;;;;;;;7.01;100.00;100377.56;5090668;28;20621;-45
2023/01/05 03:53:19;;;;;;;17.73;2.63;;;;;;;7.00;100.00;100378.50;5090145;28;20229;-47
2023/01/05 03:55:45;;;;;;;14.65;2.63;;;;;;;7.05;100.00;100387.22;5090567;28;20319;-44
2023/01/05 03:58:12;;;;;;;13.85;2.80;;;;;;;7.05;100.00;100394.34;5090556;28;20170;-46
2023/01/05 04:00:41;;;;;;;19.63;3.00;;;;;;;7.07;100.00;100389.84;5090213;28;20214;-47
2023/01/05 04:03:10;;;;;;;11.75;2.17;;;;;;;7.10;100.00;100393.25;5090359;28;20205;-44
2023/01/05 04:05:37;;;;;;;12.82;2.72;;;;;;;7.10;100.00;100387.94;5091358;28;20208;-44
2023/01/05 04:08:03;;;;;;;14.38;2.67;;;;;;;7.05;100.00;100405.88;5090544;28;20193;-43
2023/01/05 04:10:29;;;;;;;14.65;2.65;;;;;;;7.09;100.00;100393.34;5091695;28;20181;-44
2023/01/05 04:12:57;;;;;;;20.25;3.20;;;;;;;7.20;100.00;100409.84;5090072;28;20234;-43
2023/01/05 04:15:23;;;;;;;20.17;2.65;;;;;;;7.09;100.00;100409.31;5090202;28;20178;-43
2023/01/05 04:17:51;;;;;;;18.48;2.97;;;;;;;6.98;100.00;100402.50;5090216;28;20223;-45
2023/01/05 04:20:16;;;;;;;16.00;3.22;;;;;;;7.08;100.00;100405.75;5088971;28;20201;-45
2023/01/05 04:22:43;;;;;;;15.15;2.50;;;;;;;7.13;100.00;100410.97;5090216;28;20264;-48
2023/01/05 04:25:09;;;;;;;15.48;3.13;;;;;;;7.09;100.00;100419.97;5089922;28;20720;-46
2023/01/05 04:27:35;;;;;;;13.32;2.60;;;;;;;7.14;100.00;100405.56;5089094;28;20198;-47
2023/01/05 04:30:03;;;;;;;14.75;3.10;;;;;;;6.97;100.00;100414.06;5089972;28;20357;-45
2023/01/05 04:32:29;;;;;;;12.95;2.30;;;;;;;6.85;100.00;100414.47;5089785;28;20636;-43
2023/01/05 04:34:55;;;;;;;14.05;2.75;;;;;;;6.88;100.00;100414.34;5089958;28;20257;-45
2023/01/05 04:37:21;;;;;;;16.05;2.78;;;;;;;6.87;100.00;100417.09;5090125;28;20605;-46
2023/01/05 04:39:46;;;;;;;18.52;2.90;;;;;;;6.89;100.00;100424.09;5089375;28;20236;-44
2023/01/05 04:42:13;;;;;;;12.35;3.08;;;;;;;6.91;100.00;100438.25;5089487;28;20166;-48
2023/01/05 04:44:39;;;;;;;20.73;3.15;;;;;;;6.92;100.00;100415.16;5089500;28;20194;-45
2023/01/05 04:47:05;;;;;;;21.75;3.05;;;;;;;6.90;100.00;100425.84;5089519;28;20633;-47
2023/01/05 04:49:33;;;;;;;16.52;2.58;;;;;;;6.83;100.00;100421.63;5089751;28;20267;-45
2023/01/05 04:51:58;;;;;;;17.95;3.53;;;;;;;6.92;100.00;100444.44;5089483;28;20192;-44
2023/01/05 04:54:24;;;;;;;15.13;2.58;;;;;;;6.91;100.00;100440.91;5090700;28;20186;-45
2023/01/05 04:56:50;;;;;;;12.73;2.85;;;;;;;6.96;100.00;100438.13;5089393;28;20174;-45
2023/01/05 04:59:17;;;;;;;16.50;3.13;;;;;;;6.98;100.00;100442.47;5089318;28;20645;-44
2023/01/05 05:01:43;;;;;;;16.63;2.92;;;;;;;6.99;100.00;100438.88;5072608;28;20239;-43
2023/01/05 05:04:11;;;;;;;16.00;3.45;;;;;;;6.98;100.00;100452.25;5089026;28;20216;-42
2023/01/05 05:06:37;;;;;;;19.42;2.88;;;;;;;6.99;100.00;100452.19;5088734;28;20170;-41
2023/01/05 05:09:03;;;;;;;17.52;3.13;;;;;;;6.92;100.00;100447.09;5089217;28;20261;-41
2023/01/05 05:11:29;;;;;;;10.98;2.55;;;;;;;6.92;100.00;100437.31;5090287;28;20284;-43
2023/01/05 05:13:55;;;;;;;21.33;2.88;;;;;;;6.87;100.00;100436.59;5089311;28;20681;-45
2023/01/05 05:16:21;;;;;;;18.15;3.00;;;;;;;6.79;100.00;100430.59;5089320;28;20174;-43
2023/01/05 05:18:48;;;;;;;26.10;3.33;;;;;;;6.73;100.00;100439.63;5089020;28;20170;-42
2023/01/05 05:21:19;;;;;;;16.48;2.72;;;;;;;6.68;100.00;100430.06;5090412;28;20207;-46
2023/01/05 05:23:45;;;;;;;14.07;3.00;;;;;;;6.73;100.00;100431.66;5089069;28;20611;-42
2023/01/05 05:26:11;;;;;;;14.80;2.45;;;;;;;6.76;100.00;100436.91;5088828;28;20174;-43
2023/01/05 05:28:36;;;;;;;13.45;2.58;;;;;;;6.76;100.00;100430.72;5089215;28;20177;-42
2023/01/05 05:31:02;;;;;;;15.57;2.42;;;;;;;6.75;100.00;100432.47;5090136;28;20245;-46
2023/01/05 05:33:28;;;;;;;21.42;3.22;;;;;;;6.76;100.00;100439.56;5089884;28;20206;-45
2023/01/05 05:35:53;;;;;;;17.77;3.22;;;;;;;6.88;100.00;100448.97;5090236;28;20169;-45
2023/01/05 05:38:18;;;;;;;14.32;2.58;;;;;;;6.96;100.00;100454.97;5089728;28;20357;-42
2023/01/05 05:40:44;;;;;;;21.42;2.67;;;;;;;6.98;100.00;100439.81;5090175;28;20644;-43
2023/01/05 05:43:10;;;;;;;16.60;2.90;;;;;;;6.98;100.00;100446.94;5088798;28;20235;-47
2023/01/05 05:45:35;;;;;;;16.80;3.28;;;;;;;7.01;100.00;100446.81;5089983;28;20727;-42
2023/01/05 05:48:00;;;;;;;16.63;2.60;;;;;;;7.01;100.00;100447.69;5090116;28;20190;-43
2023/01/05 05:50:26;;;;;;;14.23;3.08;;;;;;;7.07;100.00;100440.47;5090130;28;20249;-48
2023/01/05 05:52:52;;;;;;;16.08;2.90;;;;;;;7.03;100.00;100439.66;5089736;28;20632;-45
2023/01/05 05:55:18;;;;;;;24.00;3.30;;;;;;;7.01;100.00;100437.03;5089884;28;20177;-44
2023/01/05 05:57:44;;;;;;;12.50;3.10;;;;;;;7.06;100.00;100454.69;5089949;28;20170;-44
2023/01/05 06:00:10;;;;;;;17.02;3.10;;;;;;;7.03;100.00;100454.78;5088772;28;20291;-45
2023/01/05 06:02:39;;;;;;;14.80;3.25;;;;;;;7.01;100.00;100453.03;5089235;28;20174;-45
2023/01/05 06:05:05;;;;;;;10.48;3.33;;;;;;;7.06;100.00;100473.31;5089713;28;20624;-46
2023/01/05 06:07:31;;;;;;;17.05;3.60;;;;;;;7.09;100.00;100457.28;5089954;28;20185;-49
2023/01/05 06:09:56;;;;;;;12.95;2.72;;;;;;;7.13;100.00;100466.91;5090016;28;20616;-44
2023/01/05 06:12:21;;;;;;;15.70;3.53;;;;;;;7.15;100.00;100487.25;5089677;28;20173;-45
2023/01/05 06:14:47;;;;;;;19.40;3.13;;;;;;;7.15;100.00;100475.72;5090094;28;20242;-45
2023/01/05 06:17:12;;;;;;;18.92;4.03;;;;;;;7.15;100.00;100478.38;5090977;28;20612;-44
2023/01/05 06:19:38;;;;;;;16.58;2.70;;;;;;;7.19;100.00;100467.59;5094037;28;20217;-44
2023/01/05 06:22:03;;;;;;;20.52;3.92;;;;;;;7.23;100.00;100471.03;5093801;28;20235;-47
2023/01/05 06:24:29;;;;;;;16.77;3.35;;;;;;;7.20;100.00;100473.81;5093266;28;20225;-42
2023/01/05 06:26:54;;;;;;;18.45;3.15;;;;;;;7.16;100.00;100474.81;5094071;28;20218;-44
2023/01/05 06:29:20;;;;;;;16.88;3.17;;;;;;;7.16;100.00;100474.81;5093853;28;20161;-46
2023/01/05 06:31:45;;;;;;;18.08;3.42;;;;;;;7.13;100.00;100490.91;5093583;28;20640;-45
2023/01/05 06:34:11;;;;;;;20.27;3.38;;;;;;;7.11;100.00;100485.59;5093658;28;20220;-44
2023/01/05 06:36:36;;;;;;;14.80;3.63;;;;;;;7.23;100.00;100487.88;5093476;28;20169;-44
2023/01/05 06:39:02;;;;;;;14.80;3.17;;;;;;;7.08;100.00;100495.47;5093168;28;20212;-43
2023/01/05 06:41:27;;;;;;;14.32;3.03;;;;;;;7.00;100.00;100511.69;5093425;28;20161;-43
2023/01/05 06:43:53;;;;;;;16.92;3.30;;;;;;;6.96;100.00;100524.22;5093299;28;20193;-44
2023/01/05 06:46:18;;;;;;;13.00;2.33;;;;;;;6.93;100.00;100528.72;5093317;28;20279;-47
2023/01/05 06:48:44;;;;;;;11.90;2.05;;;;;;;6.75;100.00;100538.09;5093432;28;20253;-43
2023/01/05 06:51:09;;;;;;;8.63;1.95;;;;;;;6.73;100.00;100547.91;5091633;28;20189;-44
2023/01/05 06:53:35;;;;;;;11.32;2.42;;;;;;;6.60;100.00;100553.59;5093089;28;20202;-44
2023/01/05 06:56:00;;;;;;;8.63;1.75;;;;;;;6.49;100.00;100573.41;5093039;28;20162;-44
2023/01/05 06:58:26;;;;;;;6.97;1.50;;;;;;;6.41;100.00;100578.94;5093086;28;20165;-44
2023/01/05 07:00:53;;;;;;;9.73;1.77;;;;;;;6.25;100.00;100590.84;5093108;28;20244;-44
2023/01/05 07:03:18;;;;;;;5.68;1.40;;;;;;;6.18;100.00;100600.75;5092727;28;20500;-45
2023/01/05 07:05:44;;;;;;;5.65;1.02;;;;;;;6.10;99.61;100614.25;5091821;28;20277;-42
2023/01/05 07:08:09;;;;;;;5.03;0.93;;;;;;;5.94;99.57;100610.16;5092970;28;20186;-47
2023/01/05 07:10:35;;;;;;;8.90;1.65;;;;;;;5.88;99.92;100637.78;5092631;28;20245;-43
2023/01/05 07:13:00;;;;;;;6.25;1.08;;;;;;;5.82;99.68;100648.53;5092820;28;20193;-43
2023/01/05 07:15:26;;;;;;;3.70;0.98;;;;;;;5.63;99.60;100656.00;5092630;28;20582;-44
2023/01/05 07:17:51;;;;;;;5.93;1.55;;;;;;;5.47;99.79;100654.59;5092759;28;20245;-47
2023/01/05 07:20:17;;;;;;;5.05;1.30;;;;;;;5.38;100.00;100676.91;5092737;28;20182;-45
2023/01/05 07:22:42;;;;;;;5.07;0.95;;;;;;;5.38;100.00;100684.88;5092616;28;20166;-45
2023/01/05 07:25:08;;;;;;;3.08;0.68;;;;;;;5.15;100.00;100704.75;5092102;28;20645;-46
2023/01/05 07:27:34;;;;;;;2.28;0.80;;;;;;;5.08;100.00;100712.88;5091538;28;20154;-47
2023/01/05 07:30:00;;;;;;;2.53;1.27;;;;;;;5.00;100.00;100709.47;5091555;28;20489;-44
2023/01/05 07:32:25;;;;;;;4.95;0.80;;;;;;;5.02;100.00;100734.22;5092079;28;20174;-44
2023/01/05 07:34:50;;;;;;;6.90;0.85;;;;;;;5.04;100.00;100743.03;5091707;28;20191;-43
2023/01/05 07:37:16;;;;;;;7.28;0.80;;;;;;;4.97;100.00;100749.34;5090618;28;20194;-43
2023/01/05 07:39:41;;;;;;;1.52;0.75;;;;;;;4.90;100.00;100762.72;5090870;28;20204;-44
2023/01/05 07:42:07;;;;;;;8.88;7.97;;;;;;;4.95;100.00;100768.81;5090181;28;20216;-47
2023/01/05 07:44:35;;;;;;;4.07;1.58;;;;;;;4.90;100.00;100783.09;5091972;28;20235;-45
2023/01/05 07:47:00;;;;;;;2.10;0.88;;;;;;;4.86;100.00;100787.56;5090338;28;20174;-43
2023/01/05 07:49:26;;;;;;;5.40;1.30;;;;;;;4.95;100.00;100807.78;5091904;28;20182;-42
2023/01/05 07:51:51;;;;;;;4.60;1.08;;;;;;;4.87;100.00;100829.13;5090672;28;20617;-45
2023/01/05 07:54:17;;;;;;;3.72;0.88;;;;;;;4.79;100.00;100839.00;5091949;28;20685;-48
2023/01/05 07:56:42;;;;;;;1.70;0.63;;;;;;;4.78;100.00;100852.28;5091502;28;20206;-46
2023/01/05 07:59:08;;;;;;;2.42;0.85;;;;;;;4.64;100.00;100857.78;5091742;28;20599;-44
2023/01/05 08:01:34;;;;;;;1.65;0.63;;;;;;;4.65;100.00;100859.53;5092068;28;20166;-45
2023/01/05 08:03:59;;;;;;;2.60;0.68;;;;;;;4.58;100.00;100869.34;5091773;28;20232;-43
2023/01/05 08:06:24;;;;;;;5.40;0.82;;;;;;;4.54;100.00;100886.19;5091866;28;20165;-45
2023/01/05 08:08:50;;;;;;;2.65;0.60;;;;;;;4.51;100.00;100879.16;5091165;28;20237;-45
2023/01/05 08:11:18;;;;;;;2.22;0.77;;;;;;;4.54;100.00;100892.38;5091517;28;20158;-42
2023/01/05 08:13:59;;;;;;;3.28;0.63;;;;;;;4.48;100.00;100905.75;5091512;28;20273;-45
2023/01/05 08:16:25;;;;;;;3.03;0.70;;;;;;;4.41;100.00;100913.78;5091616;28;20161;-43
2023/01/05 08:18:51;;;;;;;1.90;0.90;;;;;;;4.31;100.00;100926.28;5091274;28;20193;-42
2023/01/05 08:21:17;;;;;;;3.13;0.80;;;;;;;4.23;100.00;100930.78;5091599;28;20200;-44
2023/01/05 08:23:44;;;;;;;3.28;0.80;;;;;;;4.08;100.00;100943.28;5091096;28;20194;-47
2023/01/05 08:26:18;;;;;;;3.17;1.20;;;;;;;4.10;100.00;100943.28;5091106;28;20174;-44
2023/01/05 08:28:44;;;;;;;4.22;0.88;;;;;;;4.10;100.00;100945.91;5090949;28;20685;-43
2023/01/05 08:31:14;;;;;;;1.85;1.00;;;;;;;4.02;100.00;100961.88;5091214;28;20197;-47
2023/01/05 08:33:39;;;;;;;2.45;1.00;;;;;;;4.00;99.60;100950.44;5091140;28;20218;-43
2023/01/05 08:36:17;;;;;;;2.72;0.70;;;;;;;3.87;99.81;100957.63;5090944;28;20556;-47
2023/01/05 08:38:47;;;;;;;2.47;0.80;;;;;;;3.88;99.74;100972.63;5090931;28;20206;-47
2023/01/05 08:41:34;;;;;;;6.05;1.00;;;;;;;4.04;99.54;100989.25;5089703;28;20285;-43
2023/01/05 08:44:05;;;;;;;6.18;0.95;;;;;;;4.07;99.65;100989.25;5090036;28;20194;-44
2023/01/05 08:46:33;;;;;;;5.13;0.88;;;;;;;4.04;99.71;101001.66;5090389;28;20192;-45
2023/01/05 08:49:00;;;;;;;2.03;0.50;;;;;;;4.03;99.18;101002.56;5090518;28;20165;-42
2023/01/05 08:51:27;;;;;;;4.63;0.95;;;;;;;4.03;99.34;101002.56;5090030;28;20170;-42
2023/01/05 08:53:53;;;;;;;3.78;1.10;;;;;;;3.98;99.24;101014.94;5090362;28;20270;-44
2023/01/05 08:56:19;;;;;;;3.78;0.90;;;;;;;4.04;99.07;101026.38;5090685;28;20650;-43
2023/01/05 08:58:45;;;;;;;5.70;1.05;;;;;;;4.06;98.88;101019.28;5090809;28;20254;-43
2023/01/05 09:01:14;;;;;;;3.75;0.93;;;;;;;4.24;98.81;101035.94;5090328;28;20285;-43
2023/01/05 09:03:39;;;;;;;3.00;0.90;;;;;;;4.23;98.65;101028.91;5089305;28;20202;-43
2023/01/05 09:06:08;;;;;;;3.45;1.00;;;;;;;4.26;98.46;101034.16;5090633;28;20492;-44
2023/01/05 09:08:34;;;;;;;2.88;0.80;;;;;;;4.15;98.57;101046.63;5090270;28;20640;-42
2023/01/05 09:11:14;;;;;;;4.07;1.00;;;;;;;4.10;98.34;101066.09;5090649;28;20174;-42
2023/01/05 09:13:44;;;;;;;2.10;1.02;;;;;;;4.15;98.51;101071.38;5090404;28;20544;-42
2023/01/05 09:16:11;;;;;;;3.33;0.90;;;;;;;4.16;98.98;101066.97;5090164;28;20199;-43
2023/01/05 09:18:39;;;;;;;9.13;1.27;;;;;;;4.05;98.95;101078.53;5090481;28;20211;-44
2023/01/05 09:21:06;;;;;;;3.50;1.00;;;;;;;4.21;98.80;101091.69;5090125;28;20297;-46
2023/01/05 09:23:32;;;;;;;4.07;1.27;;;;;;;4.20;98.95;101097.84;5089540;28;20197;-43
2023/01/05 09:25:58;;;;;;;4.47;1.00;;;;;;;4.23;98.83;101113.75;5089629;28;20154;-44
2023/01/05 09:28:24;;;;;;;7.38;1.45;;;;;;;4.21;98.95;101120.84;5089410;28;20655;-43
2023/01/05 09:30:49;;;;;;;3.10;1.08;;;;;;;4.12;98.74;101113.84;5089819;28;20186;-45
2023/01/05 09:33:16;;;;;;;2.95;1.10;;;;;;;4.19;98.76;101117.31;5088573;28;20189;-43
2023/01/05 09:35:41;;;;;;;5.20;1.27;;;;;;;4.20;98.58;101129.69;5089121;28;20166;-45
2023/01/05 09:38:07;;;;;;;6.78;1.63;;;;;;;4.18;98.88;101135.00;5089931;28;20249;-44
2023/01/05 09:40:38;;;;;;;7.28;1.60;;;;;;;4.23;99.08;101151.75;5090145;28;20178;-43
2023/01/05 09:43:05;;;;;;;5.53;1.15;;;;;;;4.22;98.75;101155.31;5089946;28;20239;-45
2023/01/05 09:45:30;;;;;;;4.35;1.00;;;;;;;4.29;98.69;101150.84;5090212;28;20221;-43
2023/01/05 09:47:59;;;;;;;6.72;1.35;;;;;;;4.29;98.75;101157.03;5089395;28;20193;-47
2023/01/05 09:50:29;;;;;;;6.07;1.33;;;;;;;4.37;99.00;101161.38;5069449;28;20197;-44
2023/01/05 09:52:58;;;;;;;8.77;1.58;;;;;;;4.35;98.99;101172.00;5068338;28;20186;-43
2023/01/05 09:55:26;;;;;;;7.10;1.60;;;;;;;4.38;98.98;101166.69;5069422;28;20178;-41
2023/01/05 09:57:59;;;;;;;9.80;2.13;;;;;;;4.41;98.91;101173.75;5069481;28;20170;-42
2023/01/05 10:00:25;;;;;;;15.25;2.10;;;;;;;4.42;98.83;101183.47;5069523;28;20279;-47
2023/01/05 10:02:57;;;;;;;6.75;1.98;;;;;;;4.46;98.79;101179.88;5069447;28;20218;-46
2023/01/05 10:05:25;;;;;;;5.60;1.30;;;;;;;4.44;98.81;101193.19;5069644;28;20158;-43
2023/01/05 10:08:01;;;;;;;9.02;1.52;;;;;;;4.52;99.23;101201.94;5069591;28;20177;-49
2023/01/05 10:13:01;;;;;;;5.25;1.52;;;;;;;4.41;99.59;101210.88;5069610;28;20195;-44
2023/01/05 10:13:35;;;;;;;7.28;1.20;;;;;;;4.39;99.92;101216.19;5069543;28;20190;-41
2023/01/05 10:16:02;;;;;;;7.88;1.27;;;;;;;4.40;99.69;101212.66;5068169;28;20243;-41
2023/01/05 10:18:30;;;;;;;6.80;1.55;;;;;;;4.41;99.86;101214.41;5069562;28;20629;-42
2023/01/05 10:21:13;;;;;;;7.47;1.52;;;;;;;4.56;100.00;101228.47;5069605;28;20193;-45
2023/01/05 10:23:42;;;;;;;8.40;1.70;;;;;;;4.53;100.00;101232.91;5069602;28;20290;-43
2023/01/05 10:26:35;;;;;;;7.40;1.55;;;;;;;4.60;100.00;101240.84;5080385;28;20251;-47
2023/01/05 10:29:12;;;;;;;6.68;1.35;;;;;;;4.63;100.00;101246.97;5090629;28;20570;-42
2023/01/05 10:31:45;;;;;;;17.42;2.03;;;;;;;4.63;100.00;101246.09;5089786;28;20166;-44
2023/01/05 10:34:32;;;;;;;7.05;1.40;;;;;;;4.64;100.00;101248.75;5089390;28;20202;-41
2023/01/05 10:37:35;;;;;;;4.22;1.30;;;;;;;4.63;99.64;101256.72;5089750;28;20185;-44
2023/01/05 10:40:33;;;;;;;5.68;1.33;;;;;;;4.68;100.00;101246.94;5089574;28;20198;-42
2023/01/05 10:43:25;;;;;;;5.88;1.35;;;;;;;4.65;99.75;101254.94;5066068;28;20200;-44
2023/01/05 10:45:51;;;;;;;6.53;1.02;;;;;;;4.69;99.09;101256.69;5088343;28;20166;-46
2023/01/05 10:48:22;;;;;;;9.20;1.40;;;;;;;4.71;99.68;101260.22;5089565;28;20601;-44
2023/01/05 10:50:48;;;;;;;9.05;1.60;;;;;;;4.80;99.41;101256.63;5089642;28;20163;-44
2023/01/05 10:53:21;;;;;;;5.63;1.13;;;;;;;4.88;99.67;101274.25;5089545;28;20688;-44
2023/01/05 10:55:55;;;;;;;7.22;1.45;;;;;;;4.73;99.18;101275.22;5089343;28;20208;-48
2023/01/05 10:58:32;;;;;;;7.43;1.30;;;;;;;4.86;99.36;101280.47;5089691;28;20302;-44
2023/01/05 11:01:02;;;;;;;8.10;1.40;;;;;;;4.85;98.88;101278.69;5085774;28;20387;-44
2023/01/05 11:03:50;;;;;;;5.45;1.08;;;;;;;4.80;99.09;101289.34;5078314;28;20210;-44
2023/01/05 11:06:43;;;;;;;2.85;1.08;;;;;;;4.71;98.77;101292.06;5083814;28;20192;-48
2023/01/05 11:09:12;;;;;;;6.32;1.30;;;;;;;4.71;98.48;101289.41;5075734;28;20637;-47
2023/01/05 11:11:38;;;;;;;3.53;1.30;;;;;;;4.89;98.58;101302.53;5079386;28;20209;-47
2023/01/05 11:14:05;;;;;;;8.90;1.50;;;;;;;4.79;98.44;101290.25;5079098;28;20237;-48
2023/01/05 11:16:34;;;;;;;7.53;1.40;;;;;;;4.89;98.81;101305.19;5082934;28;20258;-47
2023/01/05 11:19:01;;;;;;;3.03;0.88;;;;;;;5.05;99.02;101298.03;5080991;28;20680;-47
2023/01/05 11:21:42;;;;;;;5.18;1.30;;;;;;;5.00;98.02;101305.13;5083922;28;20699;-48
2023/01/05 11:24:34;;;;;;;7.25;1.40;;;;;;;4.86;98.12;101307.88;5080310;28;20210;-47
2023/01/05 11:27:22;;;;;;;6.43;1.52;;;;;;;4.87;98.02;101319.38;5076624;28;20276;-47
2023/01/05 11:30:19;;;;;;;7.60;1.92;;;;;;;5.07;97.85;101322.78;5081206;28;20185;-48
2023/01/05 11:32:46;;;;;;;4.05;1.00;;;;;;;5.06;97.55;101317.47;5077252;28;20190;-48
2023/01/05 11:35:35;;;;;;;8.70;1.10;;;;;;;5.02;97.59;101329.03;5077952;28;20632;-48
2023/01/05 11:38:01;;;;;;;12.50;2.22;;;;;;;4.97;97.41;101329.06;5078618;28;20195;-47
2023/01/05 11:40:30;;;;;;;7.72;1.33;;;;;;;4.98;97.42;101327.28;5077350;28;20294;-49
2023/01/05 11:42:56;;;;;;;4.47;1.50;;;;;;;4.93;97.11;101336.16;5078835;28;20185;-48
2023/01/05 11:45:27;;;;;;;3.80;1.38;;;;;;;4.83;96.76;101328.25;5082299;28;20868;-47
2023/01/05 11:48:04;;;;;;;8.38;1.83;;;;;;;4.86;96.72;101333.56;5081234;28;20193;-48
2023/01/05 11:50:32;;;;;;;5.05;1.30;;;;;;;4.90;96.89;101337.97;5078303;28;20190;-47
2023/01/05 11:53:01;;;;;;;6.00;0.93;;;;;;;4.88;97.09;101340.63;5080118;28;20194;-47
2023/01/05 11:55:36;;;;;;;4.35;1.60;;;;;;;4.92;97.01;101344.16;5080075;28;20190;-46
2023/01/05 11:58:11;;;;;;;7.70;1.20;;;;;;;5.01;97.00;101345.81;5078750;28;20223;-49
2023/01/05 12:00:59;;;;;;;5.97;1.38;;;;;;;4.89;96.68;101345.03;5077230;28;20255;-48
2023/01/05 12:03:45;;;;;;;7.13;1.00;;;;;;;4.91;96.81;101348.56;5079630;28;20213;-46
2023/01/05 12:06:40;;;;;;;4.25;1.00;;;;;;;4.81;96.95;101346.88;5082175;28;20214;-47